Latest Coastal Weather Observations for Mallacoota

IDV60701

Issued at 1:21 am EST Thursday 27 April 2017 (issued every 10 minutes, with the page automatically refreshed every 10 minutes)

About coastal observations | Map of coastal stations | Coastal observations for VIC | Marine services | Other Formats
Station Details ID: 084084 Name: MALLACOOTA Lat: -37.60 Lon: 149.73 Height: 22.0 m
Data from the previous 72 hours. | See also: Recent months at Mallacoota
Date/Time
EST
Temp
°C
Wind Pressure Rain since
9am
mm
Weather Cloud Vis
km
Sea
Height
m
Swell
Dir  Spd
kts
Gust
kts
hPa Trend Height
m
Period
s
Dir
27/01:00am 8.9 W 12 21 1013.0 - 5.4 - - - - - - -
27/12:30am 9.0 W 11 18 1013.4 - 5.4 - - - - - - -
27/12:00am 9.1 W 11 22 1013.4 - 5.4 - - - - - - -
 
Date/Time
EST
Temp
°C
Wind Pressure Rain since
9am
mm
Weather Cloud Vis
km
Sea
Height
m
Swell
Dir  Spd
kts
Gust
kts
hPa Trend Height
m
Period
s
Dir
26/11:30pm 9.4 W 12 20 1013.0 - 5.4 - - - - - - -
26/11:00pm 9.5 W 11 19 1012.5 - 5.4 - - - - - - -
26/10:30pm 9.9 WSW 12 24 1012.6 - 5.4 - - - - - - -
26/10:00pm 10.0 W 11 22 1012.3 - 5.4 - - - - - - -
26/09:30pm 10.1 W 11 19 1012.2 - 5.4 - - - - - - -
26/09:00pm 10.3 WSW 8 13 1011.9 - 5.2 Recent precip. - - - - - -
26/08:30pm 10.5 SW 12 21 1011.3 - 5.0 - - - - - - -
26/08:00pm 10.8 WSW 13 26 1011.0 - 4.6 - - - - - - -
26/07:30pm 11.2 WSW 10 22 1010.6 - 4.4 - - - - - - -
26/07:00pm 11.3 SW 13 24 1010.2 - 4.4 - - - - - - -
26/06:30pm 11.2 WSW 12 21 1009.7 - 4.4 - - - - - - -
26/06:00pm 11.5 WSW 12 22 1009.1 - 4.2 Recent precip. - - - - - -
26/05:30pm 11.6 WSW 11 21 1008.5 - 4.0 - - - - - - -
26/05:00pm 12.2 SW 11 20 1007.6 - 2.4 - - - - - - -
26/04:30pm 12.9 WSW 12 20 1006.7 - 2.2 - - - - - - -
26/04:00pm 12.6 WSW 10 18 1006.6 - 2.2 - - - - - - -
26/03:30pm 13.1 WSW 13 25 1006.7 - 0.2 - - - - - - -
26/03:00pm 14.7 WSW 14 25 1005.8 - 0.2 - - - - - - -
26/02:43pm 14.9 WSW 15 30 1005.1 - 0.2 - - - - - - -
26/02:30pm 15.1 WSW 14 24 1004.9 - 0.2 - - - - - - -
26/02:14pm 15.1 WSW 15 25 1004.8 - 0.2 - - - - - - -
26/02:00pm 14.6 W 13 20 1004.8 - 0.2 - - - - - - -
26/01:30pm 14.4 WSW 13 21 1004.6 - 0.2 - - - - - - -
26/01:00pm 14.4 WSW 12 24 1004.8 - 0.2 - - - - - - -
26/12:30pm 14.8 WSW 10 17 1004.5 - 0.2 - - - - - - -
26/12:00pm 14.3 W 10 17 1004.5 - 0.2 - - - - - - -
26/11:30am 14.8 W 10 19 1004.7 - 0.2 - - - - - - -
26/11:00am 14.0 WSW 9 19 1004.6 - 0.2 - - - - - - -
26/10:30am 15.8 SSW 13 23 1004.0 - 0.0 - - - - - - -
26/10:00am 17.8 SW 9 13 1003.6 - 0.0 - - - - - - -
26/09:30am 16.9 WSW 6 11 1003.4 - 0.0 - - - - - - -
26/09:00am 15.0 WNW 1 4 1003.5 - 6.8 - - - - - - -
26/08:30am 13.9 NW 3 5 1003.7 - 6.8 - - - - - - -
26/08:00am 13.6 NNW 4 6 1004.1 - 6.8 - - - - - - -
26/07:30am 13.3 NNW 3 5 1003.5 - 6.8 - - - - - - -
26/07:00am 13.2 NNW 2 6 1003.4 - 6.8 - - - - - - -
26/06:30am 13.1 W 7 12 1003.2 - 6.8 - - - - - - -
26/06:00am 12.1 NW 6 9 1002.6 - 6.8 - - - - - - -
26/05:30am 11.7 NW 5 8 1002.6 - 6.8 - - - - - - -
26/05:00am 11.8 NW 5 8 1002.7 - 6.8 - - - - - - -
26/04:30am 11.9 NNW 4 5 1002.6 - 6.8 - - - - - - -
26/04:00am 12.3 NNW 3 6 1002.7 - 6.8 - - - - - - -
26/03:30am 12.6 NNW 5 7 1002.9 - 6.8 - - - - - - -
26/03:00am 13.1 NW 6 8 1003.1 - 6.6 - - - - - - -
26/02:30am 13.3 NNW 7 9 1003.6 - 6.6 - - - - - - -
26/02:00am 13.9 NW 5 7 1004.0 - 6.6 - - - - - - -
26/01:30am 14.2 NW 6 7 1004.3 - 6.6 - - - - - - -
26/01:00am 14.0 WNW 5 7 1004.7 - 6.6 - - - - - - -
26/12:30am 14.1 WNW 4 6 1004.7 - 6.6 - - - - - - -
26/12:00am 14.6 WNW 5 8 1005.0 - 6.6 - - - - - - -
 
Date/Time
EST
Temp
°C
Wind Pressure Rain since
9am
mm
Weather Cloud Vis
km
Sea
Height
m
Swell
Dir  Spd
kts
Gust
kts
hPa Trend Height
m
Period
s
Dir
25/11:30pm 14.7 W 6 8 1005.3 - 6.6 - - - - - - -
25/11:00pm 14.9 W 6 10 1005.3 - 6.6 - - - - - - -
25/10:30pm 15.1 W 6 12 1005.6 - 6.6 - - - - - - -
25/10:00pm 15.3 W 6 9 1005.4 - 6.6 - - - - - - -
25/09:30pm 15.5 W 6 9 1005.4 - 6.6 - - - - - - -
25/09:00pm 15.6 W 6 9 1005.6 - 6.6 - - - - - - -
25/08:30pm 15.8 W 6 9 1005.7 - 6.6 - - - - - - -
25/08:00pm 16.0 WNW 5 9 1005.7 - 6.6 - - - - - - -
25/07:30pm 16.1 W 5 9 1005.3 - 6.2 - - - - - - -
25/07:00pm 16.3 W 7 13 1005.0 - 6.2 - - - - - - -
25/06:30pm 16.8 W 8 12 1004.6 - 6.0 - - - - - - -
25/06:00pm 16.9 W 6 13 1004.2 - 6.0 - - - - - - -
25/05:30pm 16.9 W 5 7 1003.5 - 6.0 - - - - - - -
25/05:00pm 17.5 WNW 5 8 1003.0 - 6.0 - - - - - - -
25/04:30pm 17.7 WNW 4 7 1002.6 - 6.0 - - - - - - -
25/04:00pm 17.4 WNW 5 7 1002.7 - 6.0 - - - - - - -
25/03:30pm 17.4 NW 6 9 1003.3 - 6.0 - - - - - - -
25/03:00pm 17.3 NNW 5 7 1003.3 - 6.0 Recent precip. - - - - - -
25/02:30pm 17.1 NNW 6 9 1003.7 - 6.0 - - - - - - -
25/02:00pm 16.7 NNW 6 9 1004.2 - 5.8 - - - - - - -
25/01:30pm 16.5 NNW 5 6 1004.5 - 5.2 - - - - - - -
25/01:00pm 16.5 NNW 7 9 1005.1 - 4.4 - - - - - - -
25/12:30pm 16.4 N 7 10 1005.4 - 3.6 - - - - - - -
25/12:00pm 16.6 NNW 6 8 1005.9 - 2.8 Rain - - - - - -
25/11:30am 16.3 NNW 6 8 1006.4 - 2.2 - - - - - - -
25/11:00am 16.3 NW 5 7 1007.0 - 2.0 - - - - - - -
25/10:30am 16.1 NW 5 6 1007.3 - 1.6 - - - - - - -
25/10:00am 16.1 NW 2 4 1007.8 - 1.2 - - - - - - -
25/09:30am 16.0 NNW 4 6 1008.0 - 0.8 - - - - - - -
25/09:00am 16.0 NW 5 7 1008.2 - 2.0 Rain - - - - - -
25/08:30am 16.1 NNW 5 8 1008.4 - 1.2 - - - - - - -
25/08:00am 16.1 NNW 6 10 1008.5 - 1.0 - - - - - - -
25/07:30am 16.3 NW 6 9 1008.4 - 0.6 - - - - - - -
25/07:00am 16.8 NW 4 6 1008.2 - 0.0 - - - - - - -
25/06:30am 16.6 NNW 3 5 1008.2 - 0.0 - - - - - - -
25/06:00am 16.0 NNW 3 4 1008.3 - 0.0 - - - - - - -
25/05:30am 16.0 NNW 5 7 1008.6 - 0.0 - - - - - - -
25/05:00am 15.3 NW 4 5 1008.8 - 0.0 - - - - - - -
25/04:30am 15.2 NW 4 5 1009.1 - 0.0 - - - - - - -
25/04:00am 16.3 N 5 6 1009.4 - 0.0 - - - - - - -
25/03:30am 16.7 N 4 7 1010.0 - 0.0 - - - - - - -
25/03:00am 16.5 NNW 4 5 1010.5 - 0.0 - - - - - - -
25/02:30am 16.9 NW 6 8 1011.0 - 0.0 - - - - - - -
25/02:00am 16.9 NW 5 8 1011.6 - 0.0 - - - - - - -
25/01:30am 16.7 NW 5 8 1012.2 - 0.0 - - - - - - -
25/01:00am 16.5 NNW 4 7 1012.7 - 0.0 - - - - - - -
25/12:30am 16.9 NW 6 9 1013.1 - 0.0 - - - - - - -
25/12:00am 17.1 NNW 7 10 1013.5 - 0.0 - - - - - - -
 
Date/Time
EST
Temp
°C
Wind Pressure Rain since
9am
mm
Weather Cloud Vis
km
Sea
Height
m
Swell
Dir  Spd
kts
Gust
kts
hPa Trend Height
m
Period
s
Dir
24/11:30pm 17.0 NNW 6 8 1013.9 - 0.0 - - - - - - -
24/11:00pm 17.1 NNW 6 9 1014.4 - 0.0 - - - - - - -
24/10:30pm 16.7 NNW 3 6 1014.8 - 0.0 - - - - - - -
24/10:00pm 16.6 NW 4 6 1015.2 - 0.0 - - - - - - -
24/09:30pm 17.2 NNW 4 6 1015.4 - 0.0 - - - - - - -
24/09:00pm 17.7 NNW 5 7 1015.6 - 0.0 - - - - - - -
24/08:30pm 18.0 NNW 6 9 1015.6 - 0.0 - - - - - - -
24/08:00pm 18.5 NNW 7 10 1015.8 - 0.0 - - - - - - -
24/07:30pm 18.7 NNW 7 11 1015.8 - 0.0 - - - - - - -
24/07:00pm 18.7 NNW 7 10 1015.9 - 0.0 - - - - - - -
24/06:30pm 18.7 N 6 9 1016.0 - 0.0 - - - - - - -
24/06:00pm 18.8 NNW 5 8 1016.0 - 0.0 - - - - - - -
24/05:30pm 18.6 NNE 6 8 1015.9 - 0.0 - - - - - - -
24/05:00pm 19.2 CALM 0 0 1015.9 - 0.0 - - - - - - -
24/04:30pm 20.4 SSW 1 3 1015.9 - 0.0 - - - - - - -
24/04:00pm 20.6 S 3 4 1016.0 - 0.0 - - - - - - -
24/03:30pm 19.9 SSW 4 6 1016.2 - 0.0 - - - - - - -
24/03:00pm 20.3 S 5 7 1016.3 - 0.0 - - - - - - -
24/02:30pm 20.1 S 6 8 1016.5 - 0.0 - - - - - - -
24/02:00pm 20.8 S 6 8 1017.0 - 0.0 - - - - - - -
24/01:30pm 20.2 S 8 9 1017.3 - 0.0 - - - - - - -
24/01:00pm 20.8 ESE 5 7 1017.7 - 0.0 - - - - - - -
24/12:30pm 20.5 E 7 9 1018.2 - 0.0 - - - - - - -
24/12:00pm 20.8 E 6 8 1018.8 - 0.0 - - - - - - -
24/11:30am 21.0 E 6 8 1019.3 - 0.0 - - - - - - -
24/11:00am 21.7 E 3 6 1019.9 - 0.0 - - - - - - -
24/10:30am 20.7 N 6 8 1020.2 - 0.0 - - - - - - -
24/10:00am 20.0 N 5 8 1020.5 - 0.0 - - - - - - -
24/09:30am 18.0 NNW 4 6 1020.7 - 0.0 - - - - - - -
24/09:00am 16.7 NW 3 5 1021.1 - 0.0 - - - - - - -
24/08:30am 15.4 NW 4 6 1021.2 - 0.0 - - - - - - -
24/08:00am 14.1 NW 4 5 1021.3 - 0.0 - - - - - - -
24/07:30am 13.7 NW 6 8 1021.2 - 0.0 - - - - - - -
24/07:00am 13.5 NW 7 9 1021.1 - 0.0 - - - - - - -
24/06:30am 13.0 NW 6 9 1020.9 - 0.0 - - - - - - -
24/06:00am 13.2 NW 6 8 1020.9 - 0.0 - - - - - - -
24/05:30am 13.2 WNW 5 6 1021.0 - 0.0 - - - - - - -
24/05:00am 13.4 WNW 6 7 1021.0 - 0.0 - - - - - - -
24/04:30am 13.4 WNW 6 7 1020.9 - 0.0 - - - - - - -
24/04:00am 13.8 WNW 6 8 1020.8 - 0.0 - - - - - - -
24/03:30am 14.1 WNW 6 7 1021.2 - 0.0 - - - - - - -
24/03:00am 14.5 WNW 6 8 1021.3 - 0.0 - - - - - - -
24/02:30am 14.6 NW 6 8 1021.6 - 0.0 - - - - - - -
24/02:00am 14.8 NW 5 7 1021.7 - 0.0 - - - - - - -
24/01:30am 15.0 NW 5 7 1022.0 - 0.0 - - - - - - -

Other Formats:

Comma delimited format used in spreadsheet applications
http://www.bom.gov.au/fwo/IDV60701/IDV60701.94935.axf

JavaScript Object Notation format (JSON) in row-major order
http://www.bom.gov.au/fwo/IDV60701/IDV60701.94935.json